Time;durP1;ratioP1;P1;durP2;ratioP2;P2;SDS_P1;SDS_P2;PMS_P1;PMS_P2;Temp;Humidity;BMP_temperature;BMP_pressure;BME280_temperature;BME280_humidity;BME280_pressure;Samples;Min_cycle;Max_cycle;Signal;HPM_P1;HPM_P2
2022/04/21 00:00:13;;;;;;;;;13.50;12.50;;;;;13.31;45.63;100796.72;5074170;28;45456;-69
2022/04/21 00:02:39;;;;;;;;;17.75;14.25;;;;;13.34;45.84;100798.28;5068676;28;45358;-68
2022/04/21 00:05:05;;;;;;;;;17.00;13.50;;;;;13.26;45.33;100790.91;5074466;27;45517;-69
2022/04/21 00:07:30;;;;;;;;;17.50;15.25;;;;;13.23;45.40;100794.81;5067002;28;45338;-69
2022/04/21 00:09:56;;;;;;;;;12.75;12.75;;;;;13.13;45.73;100791.38;5071804;28;45484;-68
2022/04/21 00:12:21;;;;;;;;;12.50;12.50;;;;;13.09;45.83;100783.63;5067720;28;45633;-68
2022/04/21 00:14:46;;;;;;;;;12.50;12.00;;;;;13.06;46.76;100784.84;5073158;27;45318;-69
2022/04/21 00:17:12;;;;;;;;;12.25;12.00;;;;;12.97;47.66;100774.91;5066063;28;48111;-69
2022/04/21 00:19:37;;;;;;;;;18.00;12.75;;;;;12.94;47.14;100785.25;5081101;27;45427;-69
2022/04/21 00:24:48;;;;;;;;;10.00;9.75;;;;;12.85;46.83;100777.06;5072422;28;45204;-69
2022/04/21 00:27:13;;;;;;;;;18.50;16.00;;;;;12.85;47.12;100771.63;5067226;28;45990;-69
2022/04/21 00:29:39;;;;;;;;;16.25;15.00;;;;;12.84;47.63;100775.34;5084199;27;45343;-69
2022/04/21 00:32:05;;;;;;;;;15.75;15.75;;;;;12.78;47.73;100775.97;5072400;28;45487;-69
2022/04/21 00:34:33;;;;;;;;;19.00;16.00;;;;;12.73;48.24;100766.59;5074613;28;45496;-69
2022/04/21 00:36:59;;;;;;;;;14.00;14.00;;;;;12.72;46.39;100764.88;5067521;28;46620;-69
2022/04/21 00:39:24;;;;;;;;;16.00;14.50;;;;;12.76;45.73;100761.69;5073904;28;45381;-69
2022/04/21 00:41:56;;;;;;;;;16.00;13.50;;;;;12.78;46.95;100764.25;5072342;28;45416;-69
2022/04/21 00:44:21;;;;;;;;;15.50;13.25;;;;;12.76;46.78;100766.28;5074738;28;45313;-68
2022/04/21 00:46:47;;;;;;;;;16.25;13.50;;;;;12.69;47.63;100765.22;5073001;28;46851;-69
2022/04/21 00:49:14;;;;;;;;;13.75;11.50;;;;;12.64;47.75;100760.22;5072466;28;45266;-68
2022/04/21 00:51:39;;;;;;;;;12.50;11.25;;;;;12.63;47.83;100757.69;5077513;28;45421;-69
2022/04/21 00:54:05;;;;;;;;;12.50;11.50;;;;;12.57;48.11;100756.44;5077046;27;45369;-68
2022/04/21 00:56:31;;;;;;;;;17.00;14.50;;;;;12.55;48.12;100761.22;5071210;27;45320;-69
2022/04/21 00:58:57;;;;;;;;;12.75;12.75;;;;;12.51;47.42;100759.81;5075395;28;45296;-69
2022/04/21 01:04:07;;;;;;;;;15.25;12.00;;;;;12.52;47.44;100747.03;5078447;28;45336;-69
2022/04/21 01:06:33;;;;;;;;;2.00;1.00;;;;;12.48;47.61;100750.09;5079797;27;46760;-69
2022/04/21 01:08:59;;;;;;;;;16.25;12.00;;;;;12.39;47.24;100740.16;5075739;28;45281;-69
2022/04/21 01:11:24;;;;;;;;;13.75;12.00;;;;;12.39;47.28;100753.78;5068652;27;46130;-68
2022/04/21 01:13:50;;;;;;;;;15.75;13.50;;;;;12.30;46.74;100735.66;5076343;27;45242;-68
2022/04/21 01:16:15;;;;;;;;;12.00;12.00;;;;;12.37;47.13;100736.72;5068168;27;45619;-68
2022/04/21 01:18:41;;;;;;;;;13.50;12.00;;;;;12.41;46.62;100742.72;5073381;28;45355;-69
2022/04/21 01:21:06;;;;;;;;;10.00;10.00;;;;;12.37;46.58;100739.47;5067956;28;45652;-68
2022/04/21 01:23:32;;;;;;;;;13.50;12.00;;;;;12.39;46.40;100737.44;5072527;28;45366;-68
2022/04/21 01:25:58;;;;;;;;;12.00;10.50;;;;;12.38;46.83;100735.72;5067595;27;45258;-69
2022/04/21 01:28:25;;;;;;;;;14.00;14.00;;;;;12.35;46.95;100733.31;5081432;27;45404;-68
2022/04/21 01:30:54;;;;;;;;;12.00;10.75;;;;;12.28;46.88;100729.50;5068117;27;45433;-68
2022/04/21 01:33:20;;;;;;;;;11.00;11.00;;;;;12.28;47.33;100732.22;5075726;28;45327;-68
2022/04/21 01:35:45;;;;;;;;;9.50;7.25;;;;;12.25;47.67;100734.44;5064338;28;46285;-69
2022/04/21 01:41:10;;;;;;;;;13.00;13.00;;;;;12.27;47.30;100733.25;5064312;28;45774;-69
2022/04/21 01:43:39;;;;;;;;;12.25;12.25;;;;;12.21;47.19;100728.44;5075653;28;45693;-69
2022/04/21 01:46:04;;;;;;;;;14.00;12.50;;;;;12.12;46.93;100729.41;5064091;28;45992;-69
2022/04/21 01:48:30;;;;;;;;;15.50;11.00;;;;;12.13;47.35;100722.94;5075070;28;45346;-70
2022/04/21 01:50:55;;;;;;;;;16.00;14.00;;;;;12.12;47.56;100720.38;5064522;28;45413;-70
2022/04/21 01:53:21;;;;;;;;;12.50;11.00;;;;;12.10;47.67;100709.66;5071218;28;45403;-68
2022/04/21 01:55:47;;;;;;;;;16.00;14.00;;;;;12.08;47.42;100715.25;5073919;27;46740;-68
2022/04/21 01:58:12;;;;;;;;;14.25;12.75;;;;;12.06;47.24;100711.81;5068836;28;45587;-68
2022/04/21 02:00:39;;;;;;;;;12.00;12.00;;;;;12.08;47.98;100714.41;5076607;28;45630;-68
2022/04/21 02:03:04;;;;;;;;;14.50;13.25;;;;;12.05;46.85;100712.84;5073021;28;45322;-68
2022/04/21 02:05:30;;;;;;;;;13.25;13.00;;;;;12.04;46.96;100710.28;5070889;28;47032;-68
2022/04/21 02:07:56;;;;;;;;;14.25;13.75;;;;;12.03;48.26;100708.56;5069515;28;45369;-68
2022/04/21 02:10:21;;;;;;;;;13.75;12.25;;;;;11.91;47.48;100709.81;5074031;28;45394;-68
2022/04/21 02:12:47;;;;;;;;;13.75;12.00;;;;;11.86;48.03;100712.19;5070966;28;45339;-68
2022/04/21 02:15:13;;;;;;;;;14.25;12.50;;;;;11.77;47.86;100703.09;5072649;28;45453;-68
2022/04/21 02:17:39;;;;;;;;;14.75;12.50;;;;;11.71;47.91;100704.53;5073152;28;45651;-68
2022/04/21 02:20:07;;;;;;;;;11.75;10.00;;;;;11.69;47.16;100706.56;5071352;28;45295;-68
2022/04/21 02:22:35;;;;;;;;;11.75;10.75;;;;;11.69;48.31;100695.66;5068727;28;45427;-68
2022/04/21 02:25:01;;;;;;;;;11.00;8.50;;;;;11.68;47.00;100691.25;5070475;28;45482;-67
2022/04/21 02:27:26;;;;;;;;;15.25;12.25;;;;;11.65;47.20;100688.84;5067620;27;45395;-69
2022/04/21 02:29:52;;;;;;;;;13.75;11.75;;;;;11.63;48.45;100695.44;5082555;27;45526;-68
2022/04/21 02:32:18;;;;;;;;;16.25;14.25;;;;;11.51;48.43;100681.22;5066173;28;45581;-68
2022/04/21 02:34:43;;;;;;;;;14.75;13.75;;;;;11.50;48.32;100676.78;5067902;28;46439;-68
2022/04/21 02:37:09;;;;;;;;;13.50;12.00;;;;;11.55;48.63;100682.63;5065757;28;45253;-70
2022/04/21 02:39:34;;;;;;;;;15.00;13.25;;;;;11.55;47.74;100682.63;5066931;28;45434;-69
2022/04/21 02:42:01;;;;;;;;;10.75;10.50;;;;;11.61;47.93;100687.47;5066394;28;45410;-69
2022/04/21 02:44:26;;;;;;;;;16.75;14.75;;;;;11.62;47.43;100672.81;5072275;28;45327;-69
2022/04/21 02:46:52;;;;;;;;;19.50;13.00;;;;;11.63;47.89;100679.97;5065455;28;45346;-69
2022/04/21 02:49:18;;;;;;;;;16.50;14.75;;;;;11.64;48.09;100683.53;5072403;28;45324;-69
2022/04/21 02:51:44;;;;;;;;;18.25;14.50;;;;;11.65;48.08;100675.22;5066096;28;45560;-69
2022/04/21 02:59:41;;;;;;;;;16.25;13.25;;;;;11.63;48.41;100674.53;5074905;28;45452;-69
2022/04/21 03:02:06;;;;;;;;;13.25;12.25;;;;;11.59;48.09;100673.16;5078239;27;45603;-69
2022/04/21 03:04:31;;;;;;;;;12.50;10.75;;;;;11.58;48.66;100676.88;5079607;28;46271;-69
2022/04/21 03:06:57;;;;;;;;;11.50;10.75;;;;;11.54;48.19;100674.63;5063257;28;45701;-69
2022/04/21 03:09:22;;;;;;;;;15.00;14.50;;;;;11.45;48.80;100665.53;5077303;28;46307;-69
2022/04/21 03:11:48;;;;;;;;;16.00;13.25;;;;;11.29;48.68;100649.91;5065229;27;48068;-70
2022/04/21 03:14:14;;;;;;;;;15.00;12.50;;;;;11.38;48.52;100672.63;5074607;28;46107;-69
2022/04/21 03:16:39;;;;;;;;;13.25;11.75;;;;;11.40;48.14;100659.69;5064810;27;45223;-70
2022/04/21 03:19:05;;;;;;;;;13.75;13.50;;;;;11.43;48.79;100662.09;5072224;28;45378;-69
2022/04/21 03:24:20;;;;;;;;;12.25;12.25;;;;;11.45;49.03;100662.81;5069039;28;45854;-69
2022/04/21 03:26:49;;;;;;;;;13.25;13.25;;;;;11.41;47.98;100660.53;5064235;28;45829;-68
2022/04/21 03:29:15;;;;;;;;;20.00;17.25;;;;;11.45;47.42;100657.38;5081565;27;45413;-69
2022/04/21 03:31:43;;;;;;;;;17.00;17.00;;;;;11.51;47.78;100651.31;5070165;28;45881;-68
2022/04/21 03:34:14;;;;;;;;;16.25;15.00;;;;;11.44;47.90;100642.06;5071154;28;46254;-69
2022/04/21 03:36:49;;;;;;;;;15.25;15.25;;;;;11.43;48.87;100648.50;5064295;28;45271;-68
2022/04/21 03:39:16;;;;;;;;;15.75;12.75;;;;;11.37;48.94;100651.84;5075901;28;45382;-68
2022/04/21 03:41:42;;;;;;;;;19.00;17.75;;;;;11.38;47.70;100641.84;5063500;28;45247;-68
2022/04/21 03:44:07;;;;;;;;;16.50;14.25;;;;;11.46;48.50;100650.94;5070954;28;45427;-68
2022/04/21 03:46:32;;;;;;;;;16.75;16.00;;;;;11.45;48.66;100641.06;5063498;28;45329;-68
2022/04/21 03:48:58;;;;;;;;;14.75;14.75;;;;;11.41;48.56;100642.34;5067879;28;45304;-68
2022/04/21 03:51:27;;;;;;;;;10.00;10.00;;;;;11.42;49.02;100644.06;5079044;28;45440;-68
2022/04/21 03:53:54;;;;;;;;;13.00;13.00;;;;;11.38;48.74;100637.25;5071582;28;46074;-68
2022/04/21 03:56:20;;;;;;;;;19.75;18.50;;;;;11.35;49.00;100647.56;5068350;27;45192;-68
2022/04/21 03:58:46;;;;;;;;;16.75;15.25;;;;;11.32;49.90;100646.03;5068066;28;45362;-68
2022/04/21 04:01:11;;;;;;;;;12.00;11.75;;;;;11.32;47.76;100655.03;5074374;28;45328;-68
2022/04/21 04:03:37;;;;;;;;;20.00;14.75;;;;;11.30;48.68;100650.78;5073131;28;45643;-68
2022/04/21 04:06:02;;;;;;;;;21.75;15.75;;;;;11.23;49.23;100660.56;5069505;28;45274;-68
2022/04/21 04:11:12;;;;;;;;;13.25;10.75;;;;;11.07;49.17;100658.53;5067549;28;45324;-68
2022/04/21 04:13:37;;;;;;;;;16.50;14.00;;;;;11.04;48.37;100650.66;5069355;28;45737;-69
2022/04/21 04:16:02;;;;;;;;;18.25;17.00;;;;;10.97;48.42;100649.56;5073459;27;45267;-68
2022/04/21 04:18:29;;;;;;;;;18.75;17.25;;;;;10.92;49.26;100650.03;5068009;28;45387;-68
2022/04/21 04:20:55;;;;;;;;;23.00;16.25;;;;;10.91;49.69;100661.91;5066508;28;45865;-68
2022/04/21 04:23:21;;;;;;;;;19.50;14.50;;;;;10.93;48.99;100659.91;5070061;28;46036;-68
2022/04/21 04:25:47;;;;;;;;;13.50;13.25;;;;;10.89;49.05;100660.34;5066905;27;45485;-68
2022/04/21 04:28:13;;;;;;;;;17.75;14.75;;;;;10.86;48.78;100658.81;5071598;27;45393;-68
2022/04/21 04:30:39;;;;;;;;;15.00;13.50;;;;;10.85;48.67;100662.53;5065188;27;45655;-68
2022/04/21 04:33:05;;;;;;;;;17.25;15.50;;;;;10.81;48.62;100661.09;5066626;28;47444;-68
2022/04/21 04:35:31;;;;;;;;;13.75;13.75;;;;;10.88;48.13;100662.19;5065721;28;45251;-68
2022/04/21 04:37:57;;;;;;;;;14.00;13.00;;;;;10.82;48.02;100662.81;5070480;28;45586;-68
2022/04/21 04:40:22;;;;;;;;;15.25;14.00;;;;;10.79;47.92;100654.13;5068473;27;45388;-69
2022/04/21 04:42:48;;;;;;;;;17.75;15.50;;;;;10.82;48.25;100668.25;5075733;27;45242;-69
2022/04/21 04:47:57;;;;;;;;;16.50;16.00;;;;;10.83;48.65;100664.53;5069837;28;45394;-69
2022/04/21 04:50:23;;;;;;;;;18.50;14.75;;;;;10.91;49.04;100689.09;5068446;27;45307;-68
2022/04/21 04:52:48;;;;;;;;;15.50;13.50;;;;;10.90;47.81;100681.09;5072271;28;46612;-68
2022/04/21 04:55:14;;;;;;;;;20.75;19.25;;;;;10.92;48.02;100679.94;5077065;27;45326;-69
2022/04/21 04:57:40;;;;;;;;;16.50;15.50;;;;;10.95;47.84;100684.22;5072841;28;45442;-69
2022/04/21 05:00:08;;;;;;;;;19.75;15.50;;;;;10.96;49.15;100677.75;5075904;28;45914;-69
2022/04/21 05:02:34;;;;;;;;;18.75;16.00;;;;;10.99;47.37;100671.16;5067932;28;46626;-70
2022/04/21 05:05:00;;;;;;;;;17.50;15.00;;;;;11.01;46.95;100677.31;5079879;28;45618;-69
2022/04/21 05:07:25;;;;;;;;;17.00;16.75;;;;;11.05;46.75;100684.16;5068578;28;45310;-69
2022/04/21 05:09:50;;;;;;;;;18.00;14.50;;;;;11.09;46.41;100674.69;5078366;27;45331;-69
2022/04/21 05:12:16;;;;;;;;;13.75;13.00;;;;;11.20;46.06;100686.19;5066088;28;46465;-69
2022/04/21 05:14:41;;;;;;;;;14.25;11.00;;;;;11.26;46.02;100687.44;5074438;27;45503;-69
2022/04/21 05:17:06;;;;;;;;;19.00;15.75;;;;;11.31;47.28;100676.97;5065017;28;45476;-69
2022/04/21 05:19:32;;;;;;;;;16.50;15.75;;;;;11.46;48.30;100689.00;5073609;28;45645;-69
2022/04/21 05:22:03;;;;;;;;;13.75;12.75;;;;;11.42;46.54;100693.03;5065007;28;45740;-69
2022/04/21 05:24:32;;;;;;;;;13.50;13.00;;;;;11.56;46.62;100689.78;5070509;28;45491;-68
2022/04/21 05:26:58;;;;;;;;;21.25;20.75;;;;;11.65;46.27;100688.84;5064358;28;45527;-69
2022/04/21 05:32:09;;;;;;;;;18.25;16.75;;;;;11.82;45.67;100686.28;5072041;28;45669;-69
2022/04/21 05:34:35;;;;;;;;;16.50;15.00;;;;;11.90;45.71;100692.66;5072259;28;45390;-69
2022/04/21 05:37:02;;;;;;;;;17.00;16.25;;;;;12.05;45.22;100691.03;5066016;28;45311;-69
2022/04/21 05:39:31;;;;;;;;;13.00;11.25;;;;;12.15;44.49;100693.69;5073129;28;45419;-70
2022/04/21 05:41:58;;;;;;;;;16.75;15.00;;;;;12.21;46.45;100684.88;5070189;28;47166;-69
2022/04/21 05:44:24;;;;;;;;;13.75;11.75;;;;;12.24;44.60;100678.25;5069508;28;45495;-69
2022/04/21 05:46:50;;;;;;;;;15.75;13.75;;;;;12.34;44.22;100689.91;5064004;28;45400;-70
2022/04/21 05:49:17;;;;;;;;;13.75;12.00;;;;;12.44;43.59;100675.13;5072714;28;45408;-69
2022/04/21 05:51:43;;;;;;;;;12.00;12.00;;;;;12.58;43.19;100680.97;5064998;28;46551;-69
2022/04/21 05:54:08;;;;;;;;;13.50;11.50;;;;;12.58;43.34;100686.44;5065573;28;45409;-69
2022/04/21 05:56:35;;;;;;;;;16.25;15.00;;;;;12.62;42.21;100687.84;5064881;28;45248;-69
2022/04/21 05:59:00;;;;;;;;;23.75;15.75;;;;;12.72;42.47;100673.03;5077072;27;45219;-69
2022/04/21 06:01:26;;;;;;;;;17.00;12.75;;;;;12.84;42.48;100677.19;5067977;27;46493;-69
2022/04/21 06:03:52;;;;;;;;;16.75;13.50;;;;;13.18;41.73;100670.84;5071415;27;45268;-67
2022/04/21 06:06:18;;;;;;;;;16.00;14.25;;;;;13.39;41.56;100671.22;5067511;28;45522;-69
2022/04/21 06:08:44;;;;;;;;;12.00;11.75;;;;;13.47;41.30;100659.47;5072596;27;45562;-69
2022/04/21 06:11:09;;;;;;;;;15.00;12.75;;;;;13.73;41.26;100664.78;5068091;27;45520;-69
2022/04/21 06:13:36;;;;;;;;;18.00;16.75;;;;;13.51;41.25;100655.38;5070188;28;45429;-69
2022/04/21 06:16:01;;;;;;;;;18.75;14.00;;;;;13.45;41.57;100675.13;5078086;28;45365;-69
2022/04/21 06:18:27;;;;;;;;;15.00;14.50;;;;;13.33;41.68;100662.84;5068355;28;45384;-70
2022/04/21 06:20:53;;;;;;;;;16.00;14.75;;;;;13.36;41.94;100670.72;5068460;27;46286;-69
2022/04/21 06:23:20;;;;;;;;;13.75;13.75;;;;;13.39;41.65;100673.09;5066226;27;45193;-69
2022/04/21 06:25:46;;;;;;;;;15.00;12.25;;;;;13.42;41.56;100650.94;5077570;28;45749;-69
2022/04/21 06:28:13;;;;;;;;;16.75;16.75;;;;;13.65;41.63;100665.63;5081783;27;45178;-69
2022/04/21 06:30:38;;;;;;;;;13.75;12.25;;;;;15.18;39.99;100649.81;5067700;27;47134;-68
2022/04/21 06:33:05;;;;;;;;;17.50;15.75;;;;;15.83;37.42;100658.44;5069801;28;45364;-68
2022/04/21 06:35:30;;;;;;;;;14.75;14.75;;;;;15.28;37.93;100655.91;5066040;28;45400;-69
2022/04/21 06:37:57;;;;;;;;;16.50;12.75;;;;;14.89;38.77;100660.59;5070936;28;45640;-69
2022/04/21 06:40:23;;;;;;;;;11.00;9.75;;;;;14.69;39.51;100663.72;5065405;27;47101;-70
2022/04/21 06:42:49;;;;;;;;;13.75;12.00;;;;;14.57;39.92;100656.09;5063088;28;45574;-70
2022/04/21 06:48:02;;;;;;;;;13.00;12.75;;;;;14.57;39.23;100650.63;5067446;28;45401;-69
2022/04/21 06:50:32;;;;;;;;;13.50;12.25;;;;;14.57;39.59;100654.22;5075027;28;45306;-69
2022/04/21 06:52:58;;;;;;;;;18.75;17.00;;;;;14.54;39.53;100640.88;5065790;28;46370;-69
2022/04/21 06:55:23;;;;;;;;;15.75;11.50;;;;;14.44;39.86;100651.19;5074184;28;45192;-69
2022/04/21 06:57:49;;;;;;;;;10.00;10.00;;;;;14.19;40.17;100641.31;5069825;28;45332;-69
2022/04/21 07:00:16;;;;;;;;;18.75;17.75;;;;;14.21;40.41;100644.72;5075647;27;45303;-70
2022/04/21 07:02:42;;;;;;;;;18.25;11.75;;;;;14.23;39.90;100654.47;5067754;28;45353;-69
2022/04/21 07:05:11;;;;;;;;;10.50;9.00;;;;;14.38;40.22;100647.28;5072186;28;45503;-69
2022/04/21 07:07:39;;;;;;;;;17.75;14.00;;;;;14.51;40.17;100646.72;5071687;28;45453;-69
2022/04/21 07:10:05;;;;;;;;;11.50;11.00;;;;;14.61;39.78;100644.63;5071143;28;45712;-69
2022/04/21 07:12:31;;;;;;;;;15.50;13.75;;;;;14.62;39.46;100646.34;5066895;28;45429;-69
2022/04/21 07:14:57;;;;;;;;;13.75;11.25;;;;;14.74;39.27;100647.66;5070506;27;45242;-69
2022/04/21 07:17:23;;;;;;;;;18.50;16.00;;;;;14.88;39.02;100650.69;5066538;28;45332;-69
2022/04/21 07:19:49;;;;;;;;;20.75;17.00;;;;;14.82;38.63;100649.50;5070013;27;45490;-69
2022/04/21 07:22:14;;;;;;;;;17.75;14.50;;;;;14.86;39.03;100639.06;5066812;28;45536;-68
2022/04/21 07:24:40;;;;;;;;;19.75;14.75;;;;;15.05;38.46;100641.38;5065699;28;45365;-69
2022/04/21 07:27:05;;;;;;;;;14.50;14.50;;;;;15.07;38.48;100642.88;5084595;27;45343;-69
2022/04/21 07:29:30;;;;;;;;;15.50;15.50;;;;;14.89;38.23;100634.09;5081656;27;48740;-69
2022/04/21 07:31:56;;;;;;;;;17.00;15.25;;;;;15.00;38.81;100641.88;5070232;28;45264;-70
2022/04/21 07:34:22;;;;;;;;;16.00;16.00;;;;;15.14;38.15;100640.25;5070775;28;45449;-69
2022/04/21 07:36:47;;;;;;;;;13.75;13.25;;;;;15.04;38.45;100632.28;5071715;28;45415;-69
2022/04/21 07:39:13;;;;;;;;;17.50;15.00;;;;;15.22;38.42;100634.72;5070847;28;45374;-69
2022/04/21 07:41:39;;;;;;;;;20.25;15.00;;;;;15.41;38.40;100633.41;5063506;28;45739;-70
2022/04/21 07:44:04;;;;;;;;;18.25;16.00;;;;;15.22;38.05;100623.78;5073561;28;45356;-70
2022/04/21 07:46:29;;;;;;;;;18.00;15.75;;;;;15.36;37.72;100614.78;5061386;28;45196;-70
2022/04/21 07:51:39;;;;;;;;;19.00;17.50;;;;;15.60;37.71;100621.16;5069242;28;45349;-69
2022/04/21 07:54:05;;;;;;;;;17.00;15.50;;;;;15.64;37.26;100609.63;5067558;28;45394;-69
2022/04/21 07:56:30;;;;;;;;;16.25;15.25;;;;;15.88;37.54;100619.50;5074068;28;45307;-69
2022/04/21 07:58:55;;;;;;;;;13.25;11.75;;;;;16.03;37.03;100614.06;5078400;27;47876;-69
2022/04/21 08:01:21;;;;;;;;;17.67;15.67;;;;;15.92;36.59;100612.63;5068934;27;45254;-69
2022/04/21 08:03:46;;;;;;;;;19.25;15.00;;;;;16.04;36.63;100619.34;5070301;28;45246;-70
2022/04/21 08:06:12;;;;;;;;;17.25;14.00;;;;;16.14;37.14;100625.44;5068866;27;45219;-69
2022/04/21 08:08:40;;;;;;;;;14.50;14.50;;;;;16.23;36.90;100613.31;5070566;28;47473;-69
2022/04/21 08:11:07;;;;;;;;;14.75;13.50;;;;;16.53;36.65;100622.41;5068357;27;45271;-69
2022/04/21 08:13:34;;;;;;;;;13.50;12.75;;;;;16.19;37.10;100617.50;5069317;28;45408;-69
2022/04/21 08:15:59;;;;;;;;;16.50;15.00;;;;;15.85;37.68;100609.75;5078327;28;45421;-69
2022/04/21 08:18:24;;;;;;;;;14.00;14.00;;;;;16.29;37.86;100620.78;5066823;28;45309;-69
2022/04/21 08:20:53;;;;;;;;;17.75;16.25;;;;;16.76;37.16;100625.06;5066514;28;45236;-70
2022/04/21 08:23:18;;;;;;;;;13.25;13.25;;;;;17.06;36.67;100618.47;5063489;28;45382;-69
2022/04/21 08:33:56;;;;;;;;;17.00;17.00;;;;;17.58;35.92;100609.09;5070055;28;45365;-70
2022/04/21 08:36:21;;;;;;;;;17.00;14.75;;;;;17.90;36.29;100608.53;5062252;28;45305;-69
2022/04/21 08:38:47;;;;;;;;;0.00;0.00;;;;;17.92;35.01;100618.47;5075851;28;46296;-69
2022/04/21 08:41:17;;;;;;;;;18.50;16.50;;;;;18.07;35.01;100614.59;5065048;28;45477;-69
2022/04/21 08:43:46;;;;;;;;;12.00;12.00;;;;;18.09;35.00;100617.16;5062011;28;45370;-69
2022/04/21 08:46:18;;;;;;;;;17.00;17.00;;;;;17.94;34.78;100602.66;5073898;28;45369;-69
2022/04/21 08:48:47;;;;;;;;;20.50;18.00;;;;;18.28;33.88;100605.41;5073038;28;48048;-69
2022/04/21 08:51:13;;;;;;;;;19.25;16.50;;;;;18.26;34.14;100613.03;5074817;27;45252;-69
2022/04/21 08:53:40;;;;;;;;;16.50;16.25;;;;;18.69;33.24;100612.88;5072197;28;45461;-69
2022/04/21 08:56:06;;;;;;;;;18.75;14.00;;;;;18.98;32.84;100612.59;5074592;28;45488;-69
2022/04/21 08:58:31;;;;;;;;;15.00;15.00;;;;;19.16;32.74;100612.84;5072370;28;48208;-69
2022/04/21 09:00:57;;;;;;;;;17.33;15.67;;;;;19.32;32.17;100606.97;5056506;28;45522;-69
2022/04/21 09:03:23;;;;;;;;;20.25;16.75;;;;;19.22;31.50;100612.00;5081046;28;45380;-69
2022/04/21 09:05:49;;;;;;;;;15.75;14.75;;;;;19.09;30.84;100613.88;5075591;27;45438;-69
2022/04/21 09:08:22;;;;;;;;;15.25;12.50;;;;;19.30;31.08;100611.81;5071372;28;46387;-69
2022/04/21 09:11:01;;;;;;;;;17.50;15.00;;;;;19.39;31.65;100605.06;5065130;28;45455;-69
2022/04/21 09:13:39;;;;;;;;;15.25;15.25;;;;;19.05;31.17;100592.28;5070738;28;45328;-69
2022/04/21 09:16:07;;;;;;;;;19.25;16.25;;;;;19.21;31.90;100613.09;5083741;27;45542;-69
2022/04/21 09:18:46;;;;;;;;;17.25;14.25;;;;;19.52;32.01;100598.75;5071171;27;46052;-69
2022/04/21 09:21:16;;;;;;;;;20.25;15.75;;;;;19.87;31.35;100596.63;5067514;27;45341;-69
2022/04/21 09:23:49;;;;;;;;;18.00;16.50;;;;;19.79;31.44;100594.13;5070661;28;45456;-70
2022/04/21 09:26:17;;;;;;;;;16.50;14.75;;;;;19.33;30.73;100589.38;5066516;27;45357;-69
2022/04/21 09:28:57;;;;;;;;;16.00;16.00;;;;;19.30;30.00;100583.41;5087496;27;46206;-69
2022/04/21 09:31:25;;;;;;;;;15.50;14.00;;;;;18.98;30.40;100588.66;5077571;28;45172;-69
2022/04/21 09:33:51;;;;;;;;;16.25;15.25;;;;;18.99;30.93;100587.56;5075256;28;45326;-69
2022/04/21 09:36:17;;;;;;;;;17.00;13.00;;;;;19.14;30.62;100590.16;5064568;28;45495;-69
2022/04/21 09:38:55;;;;;;;;;14.75;14.00;;;;;19.31;30.87;100577.72;5075596;28;46470;-69
2022/04/21 09:41:22;;;;;;;;;18.50;16.75;;;;;19.68;30.60;100561.66;5063085;28;45452;-69
2022/04/21 09:43:49;;;;;;;;;14.25;14.25;;;;;19.83;30.60;100578.84;5075877;28;45350;-69
2022/04/21 09:46:22;;;;;;;;;10.50;7.75;;;;;19.91;29.92;100570.34;5073181;28;45457;-68
2022/04/21 09:48:52;;;;;;;;;13.75;13.75;;;;;19.99;30.79;100572.88;5067859;28;46633;-69
2022/04/21 09:51:23;;;;;;;;;17.00;15.00;;;;;20.76;29.91;100569.28;5075506;28;45321;-69
2022/04/21 09:53:50;;;;;;;;;17.00;16.75;;;;;21.04;28.98;100559.84;5072402;28;45605;-69
2022/04/21 09:56:16;;;;;;;;;16.00;15.00;;;;;21.46;29.31;100556.38;5072814;27;45460;-69
2022/04/21 09:58:43;;;;;;;;;14.67;11.00;;;;;21.82;28.58;100552.06;5077663;28;48907;-70
2022/04/21 10:01:09;;;;;;;;;14.33;13.33;;;;;21.98;28.53;100545.97;5072756;27;45329;-69
2022/04/21 10:03:34;;;;;;;;;13.00;12.67;;;;;22.17;27.58;100547.69;5068236;28;45919;-69
2022/04/21 10:06:01;;;;;;;;;12.67;12.67;;;;;21.85;26.85;100549.66;5068905;28;45398;-69
2022/04/21 10:08:29;;;;;;;;;17.00;15.33;;;;;21.60;27.94;100549.69;5070898;28;45289;-70
2022/04/21 10:10:55;;;;;;;;;18.50;17.00;;;;;21.46;28.08;100553.63;5071912;27;45383;-69
2022/04/21 10:13:21;;;;;;;;;15.50;14.50;;;;;21.75;27.36;100550.19;5069343;28;45392;-69
2022/04/21 10:15:47;;;;;;;;;14.50;14.25;;;;;22.26;26.47;100542.69;5072422;28;45492;-70
2022/04/21 10:18:15;;;;;;;;;15.67;15.00;;;;;22.56;26.61;100542.78;5069772;28;47089;-69
2022/04/21 10:20:41;;;;;;;;;18.00;14.50;;;;;22.07;25.58;100541.81;5077086;28;45175;-68
2022/04/21 10:23:13;;;;;;;;;13.67;12.00;;;;;22.61;26.18;100537.38;5071954;27;45505;-68
2022/04/21 10:25:40;;;;;;;;;15.67;13.67;;;;;23.06;25.61;100511.00;5070068;28;45359;-69
2022/04/21 10:28:37;;;;;;;;;13.00;11.00;;;;;23.28;25.33;100523.25;5078446;27;46073;-69
2022/04/21 10:31:31;;;;;;;;;12.00;12.00;;;;;23.64;24.55;100521.41;5063655;28;45113;-69
2022/04/21 10:33:58;;;;;;;;;14.00;12.33;;;;;23.26;23.92;100521.78;5074637;27;45396;-69
2022/04/21 10:36:38;;;;;;;;;12.00;11.67;;;;;23.44;24.99;100515.34;5064202;28;45290;-69
2022/04/21 10:39:16;;;;;;;;;9.33;8.00;;;;;23.75;23.45;100509.47;5076010;28;47442;-69
2022/04/21 10:41:41;;;;;;;;;13.00;13.00;;;;;23.68;23.31;100505.97;5071890;28;46515;-68
2022/04/21 10:44:26;;;;;;;;;16.00;16.00;;;;;23.24;23.85;100510.94;5072468;28;45407;-69
2022/04/21 10:47:45;;;;;;;;;12.33;12.33;;;;;23.68;23.91;100503.19;5065101;28;45171;-68
2022/04/21 10:50:19;;;;;;;;;12.33;12.00;;;;;23.56;24.04;100503.19;5041825;28;47059;-69
2022/04/21 10:58:34;;;;;;;;;19.50;17.25;;;;;23.43;23.73;100497.84;5071736;28;45414;-69
2022/04/21 11:01:09;;;;;;;;;17.67;17.33;;;;;23.57;23.37;100506.81;5062986;28;45549;-69
2022/04/21 11:03:36;;;;;;;;;16.00;12.33;;;;;23.45;23.31;100498.44;5069707;28;45475;-69
2022/04/21 11:06:05;;;;;;;;;15.00;13.33;;;;;23.63;23.73;100503.09;5078657;28;45413;-68
2022/04/21 11:08:30;;;;;;;;;14.00;13.00;;;;;23.48;22.92;100492.47;5070706;28;45541;-70
2022/04/21 11:10:56;;;;;;;;;17.00;17.00;;;;;23.43;23.29;100489.53;5070654;28;45248;-70
2022/04/21 11:13:42;;;;;;;;;17.00;14.67;;;;;23.62;23.21;100501.38;5068416;28;45184;-71
2022/04/21 11:16:07;;;;;;;;;16.25;13.50;;;;;23.73;22.80;100489.47;5063026;28;45225;-69
2022/04/21 11:18:33;;;;;;;;;15.33;14.33;;;;;23.22;22.93;100479.84;5068669;28;45476;-70
2022/04/21 11:21:26;;;;;;;;;17.33;14.67;;;;;22.86;23.05;100480.84;5067670;27;46209;-69
2022/04/21 11:23:51;;;;;;;;;12.67;12.67;;;;;22.90;22.91;100479.28;5068886;28;45247;-70
2022/04/21 11:26:17;;;;;;;;;24.25;23.50;;;;;23.54;23.16;100468.47;5062827;28;45519;-71
2022/04/21 11:28:45;;;;;;;;;14.33;10.00;;;;;24.13;22.80;100466.50;5085173;27;45272;-70
2022/04/21 11:31:12;;;;;;;;;18.00;15.50;;;;;24.42;22.06;100476.63;5063039;27;47299;-70
2022/04/21 11:33:45;;;;;;;;;14.00;12.67;;;;;24.32;22.11;100471.72;5073189;28;45426;-69
2022/04/21 11:36:13;;;;;;;;;10.00;10.00;;;;;24.43;22.08;100472.75;5062020;28;45329;-70
2022/04/21 11:38:43;;;;;;;;;13.00;13.00;;;;;24.54;22.41;100468.25;5073871;28;45268;-69
2022/04/21 11:41:12;;;;;;;;;12.67;10.67;;;;;24.41;21.48;100458.25;5062058;28;46429;-69
2022/04/21 11:43:48;;;;;;;;;15.33;14.00;;;;;24.57;22.50;100465.81;5070075;28;45855;-69
2022/04/21 11:46:13;;;;;;;;;16.00;14.33;;;;;24.78;21.99;100467.91;5062255;28;45357;-69
2022/04/21 11:48:41;;;;;;;;;15.33;13.00;;;;;25.11;22.20;100461.63;5073621;28;45681;-68
2022/04/21 11:51:10;;;;;;;;;20.33;14.67;;;;;24.56;22.93;100469.69;5062786;28;45252;-68
2022/04/21 11:53:40;;;;;;;;;11.00;11.00;;;;;24.44;22.02;100463.34;5069206;28;45354;-68